createdAt,value
2018-03-15T00:00:09.327Z,1007
2018-03-15T00:01:09.320Z,1007
2018-03-15T00:02:09.307Z,1006.98
2018-03-15T00:03:09.304Z,1006.96
2018-03-15T00:04:09.290Z,1006.99
2018-03-15T00:05:09.325Z,1006.95
2018-03-15T00:06:09.268Z,1006.98
2018-03-15T00:07:09.324Z,1006.96
2018-03-15T00:08:09.309Z,1007
2018-03-15T00:09:09.300Z,1007
2018-03-15T00:10:09.312Z,1007.01
2018-03-15T00:11:09.314Z,1007
2018-03-15T00:12:09.273Z,1006.93
2018-03-15T00:13:09.268Z,1006.98
2018-03-15T00:14:09.448Z,1007.04
2018-03-15T00:15:09.272Z,1007.06
2018-03-15T00:16:09.267Z,1007.02
2018-03-15T00:17:09.301Z,1007.05
2018-03-15T00:18:09.267Z,1007.09
2018-03-15T00:19:09.299Z,1007.07
2018-03-15T00:20:09.336Z,1007.04
2018-03-15T00:21:09.275Z,1007.05
2018-03-15T00:22:09.267Z,1007.05
2018-03-15T00:23:09.314Z,1007.02
2018-03-15T00:24:09.267Z,1007.01
2018-03-15T00:25:09.396Z,1007.05
2018-03-15T00:26:09.399Z,1006.98
2018-03-15T00:27:09.300Z,1006.99
2018-03-15T00:28:09.293Z,1006.97
2018-03-15T00:29:09.302Z,1006.95
2018-03-15T00:30:09.278Z,1006.95
2018-03-15T00:31:09.257Z,1006.95
2018-03-15T00:32:09.252Z,1007
2018-03-15T00:33:09.266Z,1006.99
2018-03-15T00:34:09.275Z,1007.02
2018-03-15T00:35:09.308Z,1007.01
2018-03-15T00:36:09.260Z,1007.06
2018-03-15T00:37:09.269Z,1007.01
2018-03-15T00:38:09.464Z,1006.97
2018-03-15T00:39:09.258Z,1006.98
2018-03-15T00:40:09.300Z,1006.96
2018-03-15T00:41:09.313Z,1007
2018-03-15T00:42:09.276Z,1006.93
2018-03-15T00:43:09.282Z,1006.9
2018-03-15T00:44:09.292Z,1006.93
2018-03-15T00:45:09.265Z,1006.92
2018-03-15T00:46:09.268Z,1006.91
2018-03-15T00:47:09.313Z,1006.9
2018-03-15T00:48:09.272Z,1006.92
2018-03-15T00:49:09.273Z,1006.95
2018-03-15T00:50:09.294Z,1006.97
2018-03-15T00:51:09.288Z,1006.97
2018-03-15T00:52:09.277Z,1006.98
2018-03-15T00:53:09.284Z,1006.98
2018-03-15T00:54:09.255Z,1006.97
2018-03-15T00:55:09.304Z,1006.98
2018-03-15T00:56:09.323Z,1006.98
2018-03-15T00:57:09.281Z,1006.96
2018-03-15T00:58:09.249Z,1006.96
2018-03-15T00:59:09.315Z,1006.93
2018-03-15T01:00:09.271Z,1006.96
2018-03-15T01:01:09.288Z,1006.91
2018-03-15T01:02:09.431Z,1006.91
2018-03-15T01:03:09.250Z,1006.94
2018-03-15T01:04:09.272Z,1006.93
2018-03-15T01:05:09.298Z,1006.92
2018-03-15T01:06:09.260Z,1006.91
2018-03-15T01:07:09.295Z,1006.87
2018-03-15T01:08:09.264Z,1006.86
2018-03-15T01:09:09.269Z,1006.83
2018-03-15T01:10:09.282Z,1006.87
2018-03-15T01:11:09.287Z,1006.85
2018-03-15T01:12:09.315Z,1006.84
2018-03-15T01:13:09.300Z,1006.8
2018-03-15T01:14:09.308Z,1006.81
2018-03-15T01:15:09.349Z,1006.77
2018-03-15T01:16:09.287Z,1006.81
2018-03-15T01:17:09.292Z,1006.78
2018-03-15T01:18:09.315Z,1006.76
2018-03-15T01:19:09.277Z,1006.69
2018-03-15T01:20:09.311Z,1006.71
2018-03-15T01:21:09.261Z,1006.65
2018-03-15T01:22:09.282Z,1006.67
2018-03-15T01:23:09.293Z,1006.66
2018-03-15T01:24:09.251Z,1006.63
2018-03-15T01:25:09.324Z,1006.58
2018-03-15T01:26:09.340Z,1006.59
2018-03-15T01:27:09.251Z,1006.59
2018-03-15T01:28:09.257Z,1006.57
2018-03-15T01:29:09.303Z,1006.58
2018-03-15T01:30:09.256Z,1006.52
2018-03-15T01:31:09.242Z,1006.57
2018-03-15T01:32:09.300Z,1006.49
2018-03-15T01:33:09.268Z,1006.48
2018-03-15T01:34:09.257Z,1006.5
2018-03-15T01:35:09.282Z,1006.42
2018-03-15T01:36:09.282Z,1006.45
2018-03-15T01:37:09.274Z,1006.4
2018-03-15T01:38:09.303Z,1006.39
2018-03-15T01:39:09.537Z,1006.37
2018-03-15T01:40:09.273Z,1006.39
2018-03-15T01:41:09.274Z,1006.35
2018-03-15T01:42:09.248Z,1006.33
2018-03-15T01:43:09.271Z,1006.34
2018-03-15T01:44:09.316Z,1006.3
2018-03-15T01:45:09.247Z,1006.24
2018-03-15T01:46:09.264Z,1006.24
2018-03-15T01:47:09.270Z,1006.23
2018-03-15T01:48:09.247Z,1006.17
2018-03-15T01:49:09.235Z,1006.16
2018-03-15T01:50:09.281Z,1006.15
2018-03-15T01:51:09.259Z,1006.08
2018-03-15T01:52:09.236Z,1006.1
2018-03-15T01:53:09.266Z,1006.09
2018-03-15T01:54:09.241Z,1006.04
2018-03-15T01:55:09.259Z,1006.03
2018-03-15T01:56:09.266Z,1006.01
2018-03-15T01:57:09.263Z,1005.98
2018-03-15T01:58:09.286Z,1005.96
2018-03-15T01:59:09.296Z,1006
2018-03-15T02:00:09.262Z,1005.96
2018-03-15T02:01:09.244Z,1005.93
2018-03-15T02:02:09.268Z,1005.92
2018-03-15T02:03:09.234Z,1005.9
2018-03-15T02:04:09.234Z,1005.87
2018-03-15T02:05:09.296Z,1005.9
2018-03-15T02:06:09.231Z,1005.84
2018-03-15T02:07:09.584Z,1005.83
2018-03-15T02:08:09.262Z,1005.84
2018-03-15T02:09:09.234Z,1005.89
2018-03-15T02:10:09.232Z,1005.8
2018-03-15T02:11:09.256Z,1005.85
2018-03-15T02:12:09.275Z,1005.79
2018-03-15T02:13:09.231Z,1005.78
2018-03-15T02:14:09.303Z,1005.77
2018-03-15T02:15:09.227Z,1005.76
2018-03-15T02:16:09.236Z,1005.76
2018-03-15T02:17:09.259Z,1005.72
2018-03-15T02:18:09.318Z,1005.67
2018-03-15T02:19:09.238Z,1005.65
2018-03-15T02:20:09.264Z,1005.61
2018-03-15T02:21:09.218Z,1005.63
2018-03-15T02:22:09.258Z,1005.6
2018-03-15T02:23:09.276Z,1005.6
2018-03-15T02:24:09.245Z,1005.56
2018-03-15T02:25:09.266Z,1005.54
2018-03-15T02:26:09.370Z,1005.55
2018-03-15T02:27:09.334Z,1005.49
2018-03-15T02:28:09.232Z,1005.45
2018-03-15T02:29:09.265Z,1005.43
2018-03-15T02:30:09.256Z,1005.42
2018-03-15T02:31:09.244Z,1005.42
2018-03-15T02:32:09.276Z,1005.43
2018-03-15T02:33:09.232Z,1005.41
2018-03-15T02:34:09.250Z,1005.45
2018-03-15T02:35:09.294Z,1005.4
2018-03-15T02:36:09.249Z,1005.41
2018-03-15T02:37:09.243Z,1005.37
2018-03-15T02:38:09.296Z,1005.33
2018-03-15T02:39:09.223Z,1005.39
2018-03-15T02:40:09.215Z,1005.32
2018-03-15T02:41:09.311Z,1005.37
2018-03-15T02:42:09.232Z,1005.37
2018-03-15T02:43:09.262Z,1005.4
2018-03-15T02:44:09.266Z,1005.38
2018-03-15T02:45:09.227Z,1005.38
2018-03-15T02:46:09.227Z,1005.39
2018-03-15T02:47:09.245Z,1005.42
2018-03-15T02:48:09.227Z,1005.39
2018-03-15T02:49:09.219Z,1005.38
2018-03-15T02:50:09.268Z,1005.36
2018-03-15T02:51:09.212Z,1005.41
2018-03-15T02:52:09.256Z,1005.4
2018-03-15T02:53:09.275Z,1005.41
2018-03-15T02:54:09.234Z,1005.44
2018-03-15T02:55:09.224Z,1005.4
2018-03-15T02:56:09.283Z,1005.4
2018-03-15T02:57:09.251Z,1005.37
2018-03-15T02:58:09.270Z,1005.36
2018-03-15T02:59:09.260Z,1005.33
2018-03-15T03:00:09.235Z,1005.3
2018-03-15T03:01:09.219Z,1005.22
2018-03-15T03:02:09.269Z,1005.22
2018-03-15T03:03:09.526Z,1005.21
2018-03-15T03:04:09.230Z,1005.13
2018-03-15T03:05:09.257Z,1005.18
2018-03-15T03:06:09.241Z,1005.12
2018-03-15T03:07:09.239Z,1005.14
2018-03-15T03:08:09.280Z,1005.15
2018-03-15T03:09:09.224Z,1005.11
2018-03-15T03:10:09.210Z,1005.15
2018-03-15T03:11:09.251Z,1005.16
2018-03-15T03:12:09.213Z,1005.13
2018-03-15T03:13:09.219Z,1005.11
2018-03-15T03:14:09.251Z,1005.16
2018-03-15T03:15:09.228Z,1005.11
2018-03-15T03:16:09.211Z,1005.06
2018-03-15T03:17:09.260Z,1005.04
2018-03-15T03:18:09.222Z,1005.01
2018-03-15T03:19:09.237Z,1004.96
2018-03-15T03:20:09.269Z,1004.9
2018-03-15T03:21:09.219Z,1004.81
2018-03-15T03:22:09.244Z,1004.78
2018-03-15T03:23:09.242Z,1004.76
2018-03-15T03:24:09.213Z,1004.76
2018-03-15T03:25:09.210Z,1004.73
2018-03-15T03:26:09.254Z,1004.73
2018-03-15T03:27:09.235Z,1004.72
2018-03-15T03:28:09.371Z,1004.68
2018-03-15T03:29:09.264Z,1004.66
2018-03-15T03:30:09.218Z,1004.7
2018-03-15T03:31:09.218Z,1004.65
2018-03-15T03:32:09.237Z,1004.65
2018-03-15T03:33:09.219Z,1004.68
2018-03-15T03:34:09.247Z,1004.66
2018-03-15T03:35:09.275Z,1004.67
2018-03-15T03:36:09.213Z,1004.65
2018-03-15T03:37:09.229Z,1004.62
2018-03-15T03:38:09.245Z,1004.6
2018-03-15T03:39:09.237Z,1004.61
2018-03-15T03:40:09.207Z,1004.55
2018-03-15T03:41:09.251Z,1004.57
2018-03-15T03:42:09.251Z,1004.55
2018-03-15T03:43:09.206Z,1004.52
2018-03-15T03:44:09.235Z,1004.51
2018-03-15T03:45:09.266Z,1004.47
2018-03-15T03:46:09.248Z,1004.44
2018-03-15T03:47:09.242Z,1004.47
2018-03-15T03:48:09.228Z,1004.48
2018-03-15T03:49:09.198Z,1004.48
2018-03-15T03:50:09.283Z,1004.54
2018-03-15T03:51:09.214Z,1004.56
2018-03-15T03:52:09.225Z,1004.51
2018-03-15T03:53:09.219Z,1004.5
2018-03-15T03:54:09.230Z,1004.49
2018-03-15T03:55:09.211Z,1004.55
2018-03-15T03:56:09.280Z,1004.52
2018-03-15T03:57:09.211Z,1004.47
2018-03-15T03:58:09.198Z,1004.53
2018-03-15T03:59:09.279Z,1004.47
2018-03-15T04:00:09.212Z,1004.43
2018-03-15T04:01:09.233Z,1004.37
2018-03-15T04:02:09.255Z,1004.35
2018-03-15T04:03:09.201Z,1004.32
2018-03-15T04:04:09.194Z,1004.3
2018-03-15T04:05:09.283Z,1004.27
2018-03-15T04:06:09.206Z,1004.21
2018-03-15T04:07:09.191Z,1004.22
2018-03-15T04:08:09.252Z,1004.23
2018-03-15T04:09:09.219Z,1004.2
2018-03-15T04:10:09.210Z,1004.21
2018-03-15T04:11:09.246Z,1004.22
2018-03-15T04:12:09.207Z,1004.25
2018-03-15T04:13:09.215Z,1004.22
2018-03-15T04:14:09.222Z,1004.27
2018-03-15T04:15:09.198Z,1004.23
2018-03-15T04:16:09.223Z,1004.25
2018-03-15T04:17:09.238Z,1004.21
2018-03-15T04:18:09.194Z,1004.25
2018-03-15T04:19:09.243Z,1004.22
2018-03-15T04:20:09.220Z,1004.29
2018-03-15T04:21:09.209Z,1004.26
2018-03-15T04:22:09.217Z,1004.21
2018-03-15T04:23:09.219Z,1004.17
2018-03-15T04:24:09.216Z,1004.15
2018-03-15T04:25:09.207Z,1004.15
2018-03-15T04:26:09.256Z,1004.15
2018-03-15T04:27:09.288Z,1004.08
2018-03-15T04:28:09.300Z,1004.06
2018-03-15T04:29:09.213Z,1004.05
2018-03-15T04:30:09.194Z,1004.06
2018-03-15T04:31:09.234Z,1004.12
2018-03-15T04:32:09.229Z,1004
2018-03-15T04:33:09.211Z,1004
2018-03-15T04:34:09.181Z,1004
2018-03-15T04:35:09.222Z,1004.01
2018-03-15T04:36:09.186Z,1004.02
2018-03-15T04:37:09.188Z,1003.98
2018-03-15T04:38:09.234Z,1003.95
2018-03-15T04:39:09.171Z,1004
2018-03-15T04:40:09.200Z,1003.95
2018-03-15T04:41:09.229Z,1003.96
2018-03-15T04:42:09.200Z,1003.94
2018-03-15T04:43:09.215Z,1003.88
2018-03-15T04:44:09.230Z,1003.88
2018-03-15T04:45:09.209Z,1003.83
2018-03-15T04:46:09.186Z,1003.81
2018-03-15T04:47:09.212Z,1003.75
2018-03-15T04:48:09.180Z,1003.7
2018-03-15T04:49:09.214Z,1003.64
2018-03-15T04:50:09.223Z,1003.65
2018-03-15T04:51:09.194Z,1003.54
2018-03-15T04:52:09.206Z,1003.43
2018-03-15T04:53:09.218Z,1003.38
2018-03-15T04:54:09.172Z,1003.4
2018-03-15T04:55:09.204Z,1003.34
2018-03-15T04:56:09.225Z,1003.27
2018-03-15T04:57:09.210Z,1003.27
2018-03-15T04:58:09.176Z,1003.25
2018-03-15T04:59:09.202Z,1003.2
2018-03-15T05:00:09.187Z,1003.17
2018-03-15T05:01:09.199Z,1003.14
2018-03-15T05:02:09.228Z,1003.13
2018-03-15T05:03:09.179Z,1003.15
2018-03-15T05:04:09.177Z,1003.16
2018-03-15T05:05:09.222Z,1003.14
2018-03-15T05:06:09.411Z,1003.12
2018-03-15T05:07:09.197Z,1003.1
2018-03-15T05:08:09.218Z,1003.06
2018-03-15T05:09:09.168Z,1003.05
2018-03-15T05:10:09.177Z,1003.09
2018-03-15T05:11:09.218Z,1003.04
2018-03-15T05:12:09.181Z,1003.02
2018-03-15T05:13:09.165Z,1003.1
2018-03-15T05:14:09.212Z,1003.06
2018-03-15T05:15:09.174Z,1003.11
2018-03-15T05:16:09.192Z,1003.11
2018-03-15T05:17:09.234Z,1003.14
2018-03-15T05:18:09.181Z,1003.09
2018-03-15T05:19:09.166Z,1003.1
2018-03-15T05:20:09.204Z,1003.12
2018-03-15T05:21:09.304Z,1003.14
2018-03-15T05:22:09.216Z,1003.09
2018-03-15T05:23:09.227Z,1003.08
2018-03-15T05:24:09.175Z,1003.02
2018-03-15T05:25:09.345Z,1003.09
2018-03-15T05:26:09.234Z,1003
2018-03-15T05:27:09.173Z,1002.96
2018-03-15T05:28:09.196Z,1002.96
2018-03-15T05:29:09.206Z,1002.95
2018-03-15T05:30:09.168Z,1002.96
2018-03-15T05:31:09.335Z,1002.91
2018-03-15T05:32:09.202Z,1002.89
2018-03-15T05:33:09.202Z,1002.9
2018-03-15T05:34:09.164Z,1002.87
2018-03-15T05:35:09.221Z,1002.91
2018-03-15T05:36:09.165Z,1002.92
2018-03-15T05:37:09.190Z,1002.93
2018-03-15T05:38:09.210Z,1002.97
2018-03-15T05:39:09.169Z,1002.99
2018-03-15T05:40:09.206Z,1002.97
2018-03-15T05:41:09.236Z,1002.99
2018-03-15T05:42:09.156Z,1002.99
2018-03-15T05:43:09.170Z,1003.02
2018-03-15T05:44:09.212Z,1003.02
2018-03-15T05:45:09.171Z,1003.03
2018-03-15T05:46:09.190Z,1003.06
2018-03-15T05:47:09.211Z,1003.14
2018-03-15T05:48:09.159Z,1003.14
2018-03-15T05:49:09.168Z,1003.13
2018-03-15T05:50:09.231Z,1003.22
2018-03-15T05:51:09.198Z,1003.19
2018-03-15T05:52:09.159Z,1003.19
2018-03-15T05:53:09.235Z,1003.16
2018-03-15T05:54:09.206Z,1003.13
2018-03-15T05:55:09.157Z,1003.08
2018-03-15T05:56:09.185Z,1003.09
2018-03-15T05:57:09.168Z,1003.11
2018-03-15T05:58:09.158Z,1003.07
2018-03-15T05:59:09.183Z,1003.09
2018-03-15T06:00:09.160Z,1003.14
2018-03-15T06:01:09.163Z,1003.2
2018-03-15T06:02:09.198Z,1003.18
2018-03-15T06:03:09.187Z,1003.19
2018-03-15T06:04:09.159Z,1003.17
2018-03-15T06:05:09.184Z,1003.19
2018-03-15T06:06:09.166Z,1003.14
2018-03-15T06:07:09.148Z,1003.1
2018-03-15T06:08:09.201Z,1003.17
2018-03-15T06:09:09.179Z,1003.11
2018-03-15T06:10:09.209Z,1003.11
2018-03-15T06:11:09.199Z,1003.09
2018-03-15T06:12:09.209Z,1003.02
2018-03-15T06:13:09.147Z,1002.99
2018-03-15T06:14:09.219Z,1002.97
2018-03-15T06:15:09.196Z,1002.99
2018-03-15T06:16:09.162Z,1002.92
2018-03-15T06:17:09.214Z,1002.94
2018-03-15T06:18:09.153Z,1002.91
2018-03-15T06:19:09.156Z,1002.92
2018-03-15T06:20:09.204Z,1002.91
2018-03-15T06:21:09.151Z,1002.89
2018-03-15T06:22:09.162Z,1002.87
2018-03-15T06:23:09.186Z,1002.88
2018-03-15T06:24:09.142Z,1002.88
2018-03-15T06:25:09.194Z,1002.87
2018-03-15T06:26:09.184Z,1002.87
2018-03-15T06:27:09.229Z,1002.84
2018-03-15T06:28:09.247Z,1002.84
2018-03-15T06:29:09.284Z,1002.79
2018-03-15T06:30:09.200Z,1002.76
2018-03-15T06:31:09.182Z,1002.77
2018-03-15T06:32:09.185Z,1002.76
2018-03-15T06:33:09.146Z,1002.76
2018-03-15T06:34:09.180Z,1002.75
2018-03-15T06:35:09.170Z,1002.72
2018-03-15T06:36:09.150Z,1002.68
2018-03-15T06:37:09.143Z,1002.65
2018-03-15T06:38:09.189Z,1002.59
2018-03-15T06:39:09.140Z,1002.59
2018-03-15T06:40:09.207Z,1002.6
2018-03-15T06:41:09.174Z,1002.55
2018-03-15T06:42:09.175Z,1002.51
2018-03-15T06:43:09.172Z,1002.49
2018-03-15T06:44:09.177Z,1002.54
2018-03-15T06:45:09.152Z,1002.5
2018-03-15T06:46:09.175Z,1002.57
2018-03-15T06:47:09.204Z,1002.53
2018-03-15T06:48:09.163Z,1002.54
2018-03-15T06:49:09.144Z,1002.52
2018-03-15T06:50:09.172Z,1002.49
2018-03-15T06:51:09.153Z,1002.5
2018-03-15T06:52:09.305Z,1002.48
2018-03-15T06:53:09.191Z,1002.45
2018-03-15T06:54:09.159Z,1002.49
2018-03-15T06:55:09.140Z,1002.47
2018-03-15T06:56:09.158Z,1002.45
2018-03-15T06:57:09.147Z,1002.42
2018-03-15T06:58:09.180Z,1002.4
2018-03-15T06:59:09.174Z,1002.41
2018-03-15T07:00:09.141Z,1002.38
2018-03-15T07:01:09.140Z,1002.39
2018-03-15T07:02:09.198Z,1002.39
2018-03-15T07:03:09.133Z,1002.38
2018-03-15T07:04:09.141Z,1002.43
2018-03-15T07:05:09.160Z,1002.36
2018-03-15T07:06:09.136Z,1002.36
2018-03-15T07:07:09.166Z,1002.31
2018-03-15T07:08:09.182Z,1002.33
2018-03-15T07:09:09.137Z,1002.33
2018-03-15T07:10:09.171Z,1002.32
2018-03-15T07:11:09.180Z,1002.28
2018-03-15T07:12:09.147Z,1002.26
2018-03-15T07:13:09.198Z,1002.3
2018-03-15T07:14:09.168Z,1002.25
2018-03-15T07:15:09.137Z,1002.27
2018-03-15T07:16:09.139Z,1002.29
2018-03-15T07:17:09.200Z,1002.22
2018-03-15T07:18:09.164Z,1002.23
2018-03-15T07:19:09.146Z,1002.2
2018-03-15T07:20:09.171Z,1002.19
2018-03-15T07:21:09.145Z,1002.15
2018-03-15T07:22:09.190Z,1002.09
2018-03-15T07:23:09.168Z,1002.06
2018-03-15T07:24:09.132Z,1002.05
2018-03-15T07:25:09.146Z,1002.1
2018-03-15T07:26:09.153Z,1002.05
2018-03-15T07:27:09.172Z,1001.98
2018-03-15T07:28:09.145Z,1001.98
2018-03-15T07:29:09.207Z,1002.02
2018-03-15T07:30:09.131Z,1001.95
2018-03-15T07:31:09.134Z,1002.01
2018-03-15T07:32:09.220Z,1001.99
2018-03-15T07:33:09.130Z,1002
2018-03-15T07:34:09.149Z,1001.98
2018-03-15T07:35:09.170Z,1001.96
2018-03-15T07:36:09.133Z,1001.98
2018-03-15T07:37:09.128Z,1001.95
2018-03-15T07:38:09.171Z,1001.98
2018-03-15T07:39:09.205Z,1001.98
2018-03-15T07:40:09.129Z,1001.95
2018-03-15T07:41:09.177Z,1001.97
2018-03-15T07:42:09.104Z,1001.97
2018-03-15T07:43:09.136Z,1001.99
2018-03-15T07:44:09.179Z,1002
2018-03-15T07:45:09.122Z,1001.97
2018-03-15T07:46:09.162Z,1001.94
2018-03-15T07:47:09.196Z,1001.92
2018-03-15T07:48:09.114Z,1001.86
2018-03-15T07:49:09.133Z,1001.89
2018-03-15T07:50:09.192Z,1001.87
2018-03-15T07:51:09.176Z,1001.87
2018-03-15T07:52:09.149Z,1001.85
2018-03-15T07:53:09.159Z,1001.85
2018-03-15T07:54:09.153Z,1001.87
2018-03-15T07:55:09.119Z,1001.8
2018-03-15T07:56:09.157Z,1001.87
2018-03-15T07:57:09.118Z,1001.81
2018-03-15T07:58:09.134Z,1001.89
2018-03-15T07:59:09.175Z,1001.9
2018-03-15T08:00:09.122Z,1001.88
2018-03-15T08:01:09.130Z,1001.9
2018-03-15T08:02:09.167Z,1001.92
2018-03-15T08:03:09.115Z,1001.85
2018-03-15T08:04:09.119Z,1001.97
2018-03-15T08:05:09.175Z,1001.92
2018-03-15T08:06:09.139Z,1001.89
2018-03-15T08:07:09.113Z,1001.94
2018-03-15T08:08:09.177Z,1001.93
2018-03-15T08:09:09.143Z,1002.01
2018-03-15T08:10:09.118Z,1001.95
2018-03-15T08:11:09.167Z,1001.93
2018-03-15T08:12:09.129Z,1001.97
2018-03-15T08:13:09.140Z,1002.02
2018-03-15T08:14:09.145Z,1001.97
2018-03-15T08:15:09.115Z,1002.07
2018-03-15T08:16:09.120Z,1001.96
2018-03-15T08:17:09.139Z,1002.03
2018-03-15T08:18:09.118Z,1001.98
2018-03-15T08:19:09.147Z,1001.94
2018-03-15T08:20:09.177Z,1002.01
2018-03-15T08:21:09.117Z,1002.02
2018-03-15T08:22:09.145Z,1002.01
2018-03-15T08:23:09.169Z,1002.05
2018-03-15T08:24:09.136Z,1002.08
2018-03-15T08:25:09.140Z,1002.08
2018-03-15T08:26:09.143Z,1002.08
2018-03-15T08:27:09.106Z,1002.07
2018-03-15T08:28:09.137Z,1002.07
2018-03-15T08:29:09.308Z,1002.04
2018-03-15T08:30:09.229Z,1002.07
2018-03-15T08:31:09.161Z,1001.96
2018-03-15T08:32:09.135Z,1002
2018-03-15T08:33:09.146Z,1001.9
2018-03-15T08:34:09.126Z,1001.86
2018-03-15T08:35:09.168Z,1001.86
2018-03-15T08:36:09.147Z,1001.83
2018-03-15T08:37:09.108Z,1001.85
2018-03-15T08:38:09.143Z,1001.83
2018-03-15T08:39:09.128Z,1001.77
2018-03-15T08:40:09.107Z,1001.81
2018-03-15T08:41:09.147Z,1001.86
2018-03-15T08:42:09.146Z,1001.8
2018-03-15T08:43:09.115Z,1001.83
2018-03-15T08:44:09.135Z,1001.85
2018-03-15T08:45:09.102Z,1001.83
2018-03-15T08:46:09.112Z,1001.79
2018-03-15T08:47:09.361Z,1001.79
2018-03-15T08:48:09.112Z,1001.79
2018-03-15T08:49:09.136Z,1001.75
2018-03-15T08:50:09.153Z,1001.76
2018-03-15T08:51:09.168Z,1001.66
2018-03-15T08:52:09.173Z,1001.67
2018-03-15T08:53:09.173Z,1001.63
2018-03-15T08:54:09.114Z,1001.54
2018-03-15T08:55:09.145Z,1001.54
2018-03-15T08:56:09.145Z,1001.57
2018-03-15T08:57:09.161Z,1001.56
2018-03-15T08:58:09.128Z,1001.54
2018-03-15T08:59:09.129Z,1001.53
2018-03-15T09:00:09.134Z,1001.49
2018-03-15T09:01:09.105Z,1001.5
2018-03-15T09:02:09.221Z,1001.46
2018-03-15T09:03:09.104Z,1001.48
2018-03-15T09:04:09.098Z,1001.45
2018-03-15T09:05:09.135Z,1001.4
2018-03-15T09:06:09.301Z,1001.43
2018-03-15T09:07:09.097Z,1001.44
2018-03-15T09:08:09.171Z,1001.44
2018-03-15T09:09:09.102Z,1001.44
2018-03-15T09:10:09.102Z,1001.4
2018-03-15T09:11:09.135Z,1001.39
2018-03-15T09:12:09.097Z,1001.38
2018-03-15T09:13:09.123Z,1001.34
2018-03-15T09:14:09.139Z,1001.31
2018-03-15T09:15:09.107Z,1001.3
2018-03-15T09:16:09.104Z,1001.28
2018-03-15T09:17:09.122Z,1001.29
2018-03-15T09:18:09.102Z,1001.28
2018-03-15T09:19:09.103Z,1001.24
2018-03-15T09:20:09.141Z,1001.22
2018-03-15T09:21:09.109Z,1001.16
2018-03-15T09:22:09.125Z,1001.15
2018-03-15T09:23:09.367Z,1001.1
2018-03-15T09:24:09.106Z,1001.1
2018-03-15T09:25:09.093Z,1001.08
2018-03-15T09:26:09.152Z,1001.16
2018-03-15T09:27:09.124Z,1001.12
2018-03-15T09:28:09.096Z,1001.09
2018-03-15T09:29:09.119Z,1001.14
2018-03-15T09:30:09.133Z,1001.14
2018-03-15T09:31:09.129Z,1001.17
2018-03-15T09:32:09.163Z,1001.16
2018-03-15T09:33:09.125Z,1001.15
2018-03-15T09:34:09.162Z,1001.14
2018-03-15T09:35:09.145Z,1001.11
2018-03-15T09:36:09.929Z,1001.14
2018-03-15T09:37:09.129Z,1001.05
2018-03-15T09:38:09.173Z,1001.04
2018-03-15T09:39:09.131Z,1001
2018-03-15T09:40:09.102Z,1001.01
2018-03-15T09:41:09.236Z,1000.99
2018-03-15T09:42:09.237Z,1001
2018-03-15T09:43:09.132Z,1000.91
2018-03-15T09:44:10.897Z,1000.96
2018-03-15T09:45:09.146Z,1001.03
2018-03-15T09:46:09.413Z,1000.98
2018-03-15T09:47:09.159Z,1000.97
2018-03-15T09:48:09.124Z,1000.95
2018-03-15T09:49:09.116Z,1000.94
2018-03-15T09:50:09.154Z,1000.98
2018-03-15T09:51:09.150Z,1000.94
2018-03-15T09:52:11.165Z,1000.88
2018-03-15T09:53:09.168Z,1000.93
2018-03-15T09:54:09.181Z,1000.93
2018-03-15T09:55:09.140Z,1000.91
2018-03-15T09:56:09.154Z,1000.93
2018-03-15T09:57:09.112Z,1000.99
2018-03-15T09:58:09.134Z,1000.98
2018-03-15T09:59:10.424Z,1001.01
2018-03-15T10:00:09.160Z,1000.99
2018-03-15T10:01:09.149Z,1000.96
2018-03-15T10:02:09.152Z,1000.98
2018-03-15T10:03:09.098Z,1000.95
2018-03-15T10:04:09.113Z,1000.89
2018-03-15T10:05:09.145Z,1000.88
2018-03-15T10:06:09.131Z,1000.88
2018-03-15T10:07:09.986Z,1000.81
2018-03-15T10:08:09.175Z,1000.79
2018-03-15T10:09:09.111Z,1000.78
2018-03-15T10:10:09.106Z,1000.72
2018-03-15T10:11:09.125Z,1000.71
2018-03-15T10:12:09.102Z,1000.67
2018-03-15T10:13:09.090Z,1000.59
2018-03-15T10:14:10.923Z,1000.54
2018-03-15T10:15:09.127Z,1000.48
2018-03-15T10:16:09.116Z,1000.47
2018-03-15T10:17:09.165Z,1000.43
2018-03-15T10:18:09.135Z,1000.44
2018-03-15T10:19:09.109Z,1000.47
2018-03-15T10:20:09.143Z,1000.45
2018-03-15T10:21:10.474Z,1000.44
2018-03-15T10:22:09.128Z,1000.45
2018-03-15T10:23:09.158Z,1000.42
2018-03-15T10:24:09.177Z,1000.44
2018-03-15T10:25:27.245Z,1000.46
2018-03-15T10:26:09.157Z,1000.43
2018-03-15T10:27:09.106Z,1000.4
2018-03-15T10:28:09.103Z,1000.43
2018-03-15T10:29:11.110Z,1000.42
2018-03-15T10:30:12.771Z,1000.45
2018-03-15T10:31:09.277Z,1000.48
2018-03-15T10:32:09.198Z,1000.47
2018-03-15T10:33:09.217Z,1000.43
2018-03-15T10:34:09.372Z,1000.49
2018-03-15T10:35:09.175Z,1000.54
2018-03-15T10:36:10.947Z,1000.54
2018-03-15T10:37:09.154Z,1000.53
2018-03-15T10:38:09.164Z,1000.58
2018-03-15T10:39:09.198Z,1000.52
2018-03-15T10:40:09.187Z,1000.55
2018-03-15T10:41:09.186Z,1000.55
2018-03-15T10:42:09.204Z,1000.58
2018-03-15T10:43:09.175Z,1000.6
2018-03-15T10:44:10.977Z,1000.61
2018-03-15T10:45:09.175Z,1000.6
2018-03-15T10:46:09.210Z,1000.63
2018-03-15T10:47:09.184Z,1000.64
2018-03-15T10:48:09.253Z,1000.66
2018-03-15T10:49:09.195Z,1000.65
2018-03-15T10:50:09.145Z,1000.68
2018-03-15T10:51:09.362Z,1000.6
2018-03-15T10:52:09.164Z,1000.57
2018-03-15T10:53:09.172Z,1000.52
2018-03-15T10:54:09.214Z,1000.52
2018-03-15T10:55:09.160Z,1000.49
2018-03-15T10:56:09.200Z,1000.52
2018-03-15T10:57:09.205Z,1000.53
2018-03-15T10:58:09.160Z,1000.61
2018-03-15T10:59:09.877Z,1000.56
2018-03-15T11:00:09.157Z,1000.54
2018-03-15T11:01:09.179Z,1000.52
2018-03-15T11:02:09.178Z,1000.51
2018-03-15T11:03:09.168Z,1000.56
2018-03-15T11:04:09.154Z,1000.49
2018-03-15T11:05:09.143Z,1000.46
2018-03-15T11:06:09.159Z,1000.45
2018-03-15T11:07:10.490Z,1000.46
2018-03-15T11:08:09.154Z,1000.43
2018-03-15T11:09:09.167Z,1000.37
2018-03-15T11:10:09.191Z,1000.38
2018-03-15T11:11:09.161Z,1000.37
2018-03-15T11:12:09.380Z,1000.35
2018-03-15T11:13:09.171Z,1000.32
2018-03-15T11:14:09.154Z,1000.33
2018-03-15T11:15:10.688Z,1000.35
2018-03-15T11:16:09.158Z,1000.3
2018-03-15T11:17:09.156Z,1000.31
2018-03-15T11:18:09.319Z,1000.27
2018-03-15T11:19:09.152Z,1000.28
2018-03-15T11:20:09.131Z,1000.27
2018-03-15T11:21:09.157Z,1000.24
2018-03-15T11:22:09.167Z,1000.24
2018-03-15T11:23:11.193Z,1000.19
2018-03-15T11:24:09.214Z,1000.16
2018-03-15T11:25:09.167Z,1000.16
2018-03-15T11:26:09.163Z,1000.14
2018-03-15T11:27:09.160Z,1000.1
2018-03-15T11:28:09.168Z,1000.1
2018-03-15T11:29:09.154Z,1000.07
2018-03-15T11:30:09.589Z,1000.08
2018-03-15T11:31:09.188Z,1000.08
2018-03-15T11:32:09.198Z,1000.06
2018-03-15T11:33:09.161Z,1000.08
2018-03-15T11:34:09.191Z,1000.07
2018-03-15T11:35:09.160Z,1000.06
2018-03-15T11:36:09.163Z,1000.03
2018-03-15T11:37:09.163Z,1000.03
2018-03-15T11:38:10.046Z,1000.02
2018-03-15T11:39:09.203Z,1000.03
2018-03-15T11:40:09.215Z,1000.02
2018-03-15T11:41:09.153Z,1000.01
2018-03-15T11:42:09.165Z,999.94
2018-03-15T11:43:09.249Z,999.87
2018-03-15T11:44:09.223Z,999.88
2018-03-15T11:45:09.125Z,999.85
2018-03-15T11:46:10.771Z,999.85
2018-03-15T11:47:09.208Z,999.75
2018-03-15T11:48:09.206Z,999.7
2018-03-15T11:49:09.209Z,999.66
2018-03-15T11:50:09.168Z,999.6
2018-03-15T11:51:09.148Z,999.62
2018-03-15T11:52:09.162Z,999.64
2018-03-15T11:53:09.227Z,999.6
2018-03-15T11:54:09.179Z,999.52
2018-03-15T11:55:09.140Z,999.51
2018-03-15T11:56:09.340Z,999.49
2018-03-15T11:57:09.164Z,999.42
2018-03-15T11:58:09.161Z,999.38
2018-03-15T11:59:09.170Z,999.35
2018-03-15T12:00:09.220Z,999.27
2018-03-15T12:01:10.386Z,999.24
2018-03-15T12:02:09.139Z,999.25
2018-03-15T12:03:09.189Z,999.14
2018-03-15T12:04:09.160Z,999.16
2018-03-15T12:05:09.167Z,999.18
2018-03-15T12:06:09.148Z,999.11
2018-03-15T12:07:09.157Z,999.1
2018-03-15T12:08:09.180Z,999.08
2018-03-15T12:09:10.885Z,999
2018-03-15T12:10:09.187Z,999.02